Time;durP1;ratioP1;P1;durP2;ratioP2;P2;SDS_P1;SDS_P2;PMS_P1;PMS_P2;Temp;Humidity;BMP_temperature;BMP_pressure;BME280_temperature;BME280_humidity;BME280_pressure;Samples;Min_cycle;Max_cycle;Signal;HPM_P1;HPM_P2
2023/12/08 00:02:16;;;;;;;5.20;3.60;;;;;;;-144.30;98.71;86674.91;5112786;28;20670;-59
2023/12/08 00:04:43;;;;;;;3.53;3.27;;;;;;;-144.30;99.03;86647.06;5112585;28;20309;-58
2023/12/08 00:07:10;;;;;;;3.93;3.63;;;;;;;-144.30;98.79;86680.88;5112375;28;20692;-61
2023/12/08 00:09:36;;;;;;;4.47;3.57;;;;;;;-144.30;98.54;86682.88;5112348;28;20202;-58
2023/12/08 00:12:04;;;;;;;3.90;3.53;;;;;;;-144.30;99.30;86690.81;5112281;28;20194;-61
2023/12/08 00:14:31;;;;;;;5.03;3.47;;;;;;;-144.30;99.32;86653.03;5112425;28;20197;-60
2023/12/08 00:16:58;;;;;;;4.10;3.70;;;;;;;-144.30;99.15;86696.78;5112119;28;20201;-59
2023/12/08 00:19:26;;;;;;;4.43;3.90;;;;;;;-144.30;99.07;86694.81;5112212;28;20197;-60
2023/12/08 00:21:53;;;;;;;4.20;3.87;;;;;;;-144.30;98.88;86702.75;5112088;28;20283;-60
2023/12/08 00:24:20;;;;;;;4.10;3.70;;;;;;;-144.30;98.76;86645.09;5112177;28;20222;-58
2023/12/08 00:26:47;;;;;;;4.07;3.73;;;;;;;-144.30;98.60;86607.31;5112118;28;20205;-61
2023/12/08 00:29:14;;;;;;;5.13;4.03;;;;;;;-144.30;98.08;86684.84;5111923;28;20285;-59
2023/12/08 00:31:41;;;;;;;4.83;4.43;;;;;;;-144.30;98.02;86672.94;5111943;28;20191;-60
2023/12/08 00:34:08;;;;;;;4.63;4.23;;;;;;;-144.30;98.74;86700.78;5111919;28;20197;-59
2023/12/08 00:36:36;;;;;;;4.60;4.20;;;;;;;-144.30;98.12;86696.78;5112289;28;20521;-60
2023/12/08 00:39:03;;;;;;;4.50;4.10;;;;;;;-144.30;97.87;86680.88;5111828;28;20191;-59
2023/12/08 00:41:30;;;;;;;6.00;5.23;;;;;;;-144.30;98.11;86678.88;5111788;28;20741;-59
2023/12/08 00:43:57;;;;;;;4.97;4.03;;;;;;;-144.30;97.82;86664.97;5111835;28;20293;-60
2023/12/08 00:46:24;;;;;;;4.30;4.00;;;;;;;-144.30;97.37;86688.84;5111844;28;20194;-60
2023/12/08 00:48:51;;;;;;;4.87;4.43;;;;;;;-144.30;97.13;86680.88;5111526;28;20302;-58
2023/12/08 00:51:18;;;;;;;4.93;4.53;;;;;;;-144.30;97.17;86649.06;5111797;27;20220;-59
2023/12/08 00:53:46;;;;;;;5.80;4.77;;;;;;;-144.30;97.17;86641.09;5111838;28;20194;-59
2023/12/08 00:56:13;;;;;;;5.23;4.53;;;;;;;-144.30;97.55;86641.09;5111539;28;20195;-60
2023/12/08 00:58:40;;;;;;;4.77;4.23;;;;;;;-144.30;97.09;86655.03;5111739;28;20681;-58
2023/12/08 01:01:09;;;;;;;5.57;5.07;;;;;;;-144.30;97.47;86662.97;5111387;28;20198;-57
2023/12/08 01:03:36;;;;;;;5.13;4.73;;;;;;;-144.30;97.60;86662.97;5110507;28;20301;-58
2023/12/08 01:06:03;;;;;;;5.50;5.10;;;;;;;-144.30;98.39;86678.88;5111321;28;20186;-59
2023/12/08 01:08:30;;;;;;;5.50;4.80;;;;;;;-144.30;97.44;86668.94;5110531;28;20203;-59
2023/12/08 01:10:58;;;;;;;5.60;5.10;;;;;;;-144.30;97.32;86666.97;5111301;28;20696;-61
2023/12/08 01:13:25;;;;;;;4.60;4.20;;;;;;;-144.30;97.48;86686.84;5110962;28;20198;-60
2023/12/08 01:15:52;;;;;;;6.33;5.07;;;;;;;-144.30;97.51;86668.94;5111293;28;20195;-57
2023/12/08 01:18:19;;;;;;;6.20;5.60;;;;;;;-144.30;97.26;86684.84;5111048;28;20216;-60
2023/12/08 01:20:46;;;;;;;5.40;4.90;;;;;;;-144.30;97.73;86547.66;5111017;28;20198;-59
2023/12/08 01:23:13;;;;;;;6.20;5.63;;;;;;;-144.30;98.10;86696.78;5110905;28;20596;-59
2023/12/08 01:25:40;;;;;;;5.77;5.27;;;;;;;-144.30;97.19;86653.03;5111014;28;20701;-60
2023/12/08 01:28:08;;;;;;;6.13;4.67;;;;;;;-144.30;97.13;86643.09;5110792;28;20198;-58
2023/12/08 01:30:35;;;;;;;5.30;4.80;;;;;;;-144.30;96.68;86692.81;5111001;28;20696;-60
2023/12/08 01:33:03;;;;;;;5.07;4.53;;;;;;;-144.30;96.72;86653.03;5110706;28;20603;-59
2023/12/08 01:35:30;;;;;;;5.13;4.73;;;;;;;-144.30;96.32;86672.94;5110727;28;20194;-60
2023/12/08 01:37:57;;;;;;;5.40;4.90;;;;;;;-144.30;96.17;86678.88;5110375;28;20674;-58
2023/12/08 01:40:24;;;;;;;5.50;5.00;;;;;;;-144.30;96.10;86653.03;5110274;28;20317;-58
2023/12/08 01:42:50;;;;;;;5.33;4.83;;;;;;;-144.30;96.33;86655.03;5110387;28;20201;-59
2023/12/08 01:45:19;;;;;;;5.77;5.27;;;;;;;-144.30;96.10;86670.94;5110738;28;20710;-59
2023/12/08 01:47:47;;;;;;;5.30;4.80;;;;;;;-144.30;95.10;86680.88;5110741;28;20286;-58
2023/12/08 01:50:17;;;;;;;5.40;4.90;;;;;;;-144.30;94.97;86684.84;5110282;28;20257;-57
2023/12/08 01:52:44;;;;;;;5.00;4.60;;;;;;;-144.30;95.41;86668.94;5110419;28;20205;-58
2023/12/08 01:55:12;;;;;;;7.07;5.10;;;;;;;-144.30;95.06;86661.00;5110154;28;20195;-60
2023/12/08 01:57:40;;;;;;;5.27;4.77;;;;;;;-144.30;94.87;86649.06;5110386;28;20205;-58
2023/12/08 02:00:08;;;;;;;4.83;4.43;;;;;;;-144.30;94.81;86641.09;5110445;28;20601;-59
2023/12/08 02:02:37;;;;;;;5.17;4.67;;;;;;;-144.30;93.16;86651.06;5110476;28;20191;-58
2023/12/08 02:05:05;;;;;;;5.03;4.63;;;;;;;-144.30;93.37;86686.84;5110208;28;20770;-59
2023/12/08 02:07:33;;;;;;;5.63;5.10;;;;;;;-144.30;93.44;86674.91;5110747;28;20628;-59
2023/12/08 02:10:00;;;;;;;5.90;5.33;;;;;;;-144.30;93.13;86668.94;5110019;28;20209;-57
2023/12/08 02:12:27;;;;;;;5.97;5.33;;;;;;;-144.30;93.29;86676.91;5110228;28;20285;-58
2023/12/08 02:14:54;;;;;;;5.47;4.97;;;;;;;-144.30;93.13;86682.88;5109132;28;20217;-57
2023/12/08 02:17:25;;;;;;;5.93;5.23;;;;;;;-144.30;92.92;86643.09;5110020;28;20194;-60
2023/12/08 02:19:55;;;;;;;7.07;5.07;;;;;;;-144.30;92.97;86617.25;5110184;28;20205;-61
2023/12/08 02:22:24;;;;;;;5.80;5.27;;;;;;;-144.30;92.84;86643.09;5110082;28;20200;-60
2023/12/08 02:24:52;;;;;;;5.10;4.70;;;;;;;-144.30;92.56;86575.47;5109864;28;20608;-59
2023/12/08 02:27:19;;;;;;;6.67;5.53;;;;;;;-144.30;93.03;86688.84;5109836;28;20228;-60
2023/12/08 02:29:47;;;;;;;6.33;5.73;;;;;;;-144.30;93.49;86629.19;5109774;28;20216;-60
2023/12/08 02:32:22;;;;;;;5.97;4.97;;;;;;;-144.30;93.05;86639.13;5109964;28;20202;-61
2023/12/08 02:34:50;;;;;;;6.77;5.47;;;;;;;-144.30;93.55;86597.34;5109885;28;20198;-58
2023/12/08 02:37:19;;;;;;;6.97;5.77;;;;;;;-144.30;94.19;86633.16;5109953;28;20199;-58
2023/12/08 02:39:48;;;;;;;6.07;5.47;;;;;;;-144.30;94.02;86674.91;5109873;28;20274;-58
2023/12/08 02:42:17;;;;;;;6.43;5.83;;;;;;;-144.30;94.03;86680.88;5109632;28;20277;-58
2023/12/08 02:44:44;;;;;;;7.27;5.77;;;;;;;-144.30;93.29;86678.88;5109865;28;20732;-58
2023/12/08 02:47:11;;;;;;;7.60;6.73;;;;;;;-144.30;92.93;86684.84;5109716;28;20204;-61
2023/12/08 02:49:38;;;;;;;6.80;6.10;;;;;;;-144.30;93.48;86688.84;5110107;28;20286;-59
2023/12/08 02:52:05;;;;;;;7.03;5.73;;;;;;;-144.30;93.52;86668.94;5109735;28;20281;-57
2023/12/08 02:54:32;;;;;;;8.93;6.73;;;;;;;-144.30;93.66;86649.06;5110342;28;20191;-60
2023/12/08 02:56:59;;;;;;;7.40;6.27;;;;;;;-144.30;93.58;86633.16;5109431;28;20600;-60
2023/12/08 02:59:27;;;;;;;6.90;6.20;;;;;;;-144.30;94.04;86653.03;5109896;28;20605;-60
2023/12/08 03:01:54;;;;;;;7.07;6.23;;;;;;;-144.30;93.33;86684.84;5109696;28;20290;-58
2023/12/08 03:04:21;;;;;;;7.70;6.87;;;;;;;-144.30;94.51;86672.94;5109701;28;20624;-58
2023/12/08 03:06:48;;;;;;;7.60;6.40;;;;;;;-144.30;94.24;86688.84;5109594;28;20203;-60
2023/12/08 03:09:15;;;;;;;8.77;6.83;;;;;;;-144.30;94.55;86688.84;5109716;28;20190;-61
2023/12/08 03:11:42;;;;;;;7.73;6.27;;;;;;;-144.30;94.46;86633.16;5109549;28;20201;-59
2023/12/08 03:14:09;;;;;;;8.33;7.03;;;;;;;-144.30;94.57;86583.44;5109460;28;20197;-59
2023/12/08 03:16:37;;;;;;;7.17;6.30;;;;;;;-144.30;94.63;86653.03;5109694;28;20190;-60
2023/12/08 03:19:04;;;;;;;7.83;6.30;;;;;;;-144.30;94.43;86684.84;5109498;28;20198;-56
2023/12/08 03:21:31;;;;;;;9.20;6.93;;;;;;;-144.30;94.63;86680.88;5109397;28;20195;-59
2023/12/08 03:23:58;;;;;;;9.43;6.97;;;;;;;-144.30;94.77;86666.97;5109545;28;20206;-57
2023/12/08 03:26:25;;;;;;;9.30;7.43;;;;;;;-144.30;95.25;86664.97;5111110;28;20244;-60
2023/12/08 03:28:51;;;;;;;8.30;7.20;;;;;;;-144.30;94.72;86676.91;5113134;28;20210;-57
2023/12/08 03:31:26;;;;;;;7.37;6.50;;;;;;;-144.30;95.43;86406.44;5113013;28;20201;-57
2023/12/08 03:33:55;;;;;;;10.30;7.40;;;;;;;-144.30;95.38;86637.13;5112877;28;20191;-57
2023/12/08 03:36:22;;;;;;;9.87;7.07;;;;;;;-144.30;94.50;86629.19;5113158;28;20311;-60
2023/12/08 03:38:49;;;;;;;10.63;8.43;;;;;;;-144.30;94.82;86678.88;5113080;28;20208;-59
2023/12/08 03:41:16;;;;;;;10.50;7.93;;;;;;;-144.30;94.90;86585.44;5112899;28;20234;-60
2023/12/08 03:43:43;;;;;;;10.27;7.73;;;;;;;-144.30;95.19;86575.47;5113189;28;20281;-59
2023/12/08 03:46:10;;;;;;;9.40;7.13;;;;;;;-144.30;94.46;86655.03;5112657;28;20335;-60
2023/12/08 03:48:37;;;;;;;7.70;6.87;;;;;;;-144.30;93.47;86661.00;5112953;28;20201;-59
2023/12/08 03:51:06;;;;;;;9.77;7.77;;;;;;;-144.30;93.37;86597.34;5112385;28;20267;-60
2023/12/08 03:53:33;;;;;;;10.47;8.00;;;;;;;-144.30;93.27;86643.09;5112685;28;20205;-57
2023/12/08 03:56:00;;;;;;;8.43;7.17;;;;;;;-144.30;93.88;86633.16;5112753;28;20303;-60
2023/12/08 03:58:27;;;;;;;10.73;7.80;;;;;;;-144.30;93.41;86666.97;5112606;28;20662;-56
2023/12/08 04:00:54;;;;;;;10.27;8.20;;;;;;;-144.30;93.37;86668.94;5112180;28;20198;-57
2023/12/08 04:03:22;;;;;;;8.93;7.67;;;;;;;-144.30;93.32;86659.00;5112115;28;20204;-56
2023/12/08 04:05:49;;;;;;;9.63;7.80;;;;;;;-144.30;93.08;86657.03;5112357;28;20335;-57
2023/12/08 04:08:17;;;;;;;11.37;8.20;;;;;;;-144.30;92.87;86641.09;5112441;28;20208;-59
2023/12/08 04:10:44;;;;;;;12.00;7.67;;;;;;;-144.30;93.00;86653.03;5112816;28;20205;-57
2023/12/08 04:13:11;;;;;;;11.77;8.10;;;;;;;-144.30;92.37;86659.00;5112388;28;20220;-57
2023/12/08 04:15:38;;;;;;;9.13;7.23;;;;;;;-144.30;92.30;86643.09;5112619;28;20677;-56
2023/12/08 04:18:05;;;;;;;9.97;7.27;;;;;;;-144.30;92.56;86670.94;5112282;28;20199;-57
2023/12/08 04:20:32;;;;;;;8.20;7.40;;;;;;;-144.30;92.76;86645.09;5112095;28;20202;-56
2023/12/08 04:22:59;;;;;;;10.27;8.03;;;;;;;-144.30;92.67;86664.97;5112296;28;20585;-58
2023/12/08 04:25:28;;;;;;;10.20;7.30;;;;;;;-144.30;92.09;86651.06;5112113;28;20225;-59
2023/12/08 04:27:54;;;;;;;9.70;8.03;;;;;;;-144.30;92.39;86661.00;5112149;28;20291;-60
2023/12/08 04:30:21;;;;;;;8.10;7.10;;;;;;;-144.30;91.79;86647.06;5112284;28;20199;-59
2023/12/08 04:32:48;;;;;;;10.80;7.77;;;;;;;-144.30;92.05;86641.09;5112348;28;20692;-60
2023/12/08 04:35:15;;;;;;;10.10;7.87;;;;;;;-144.30;91.48;86714.69;5112325;28;20302;-59
2023/12/08 04:37:42;;;;;;;10.03;7.90;;;;;;;-144.30;91.36;86682.88;5111281;28;20201;-58
2023/12/08 04:40:10;;;;;;;8.47;7.33;;;;;;;-144.30;91.29;86567.53;5111678;28;20205;-57
2023/12/08 04:42:39;;;;;;;11.67;8.37;;;;;;;-144.30;92.23;86631.16;5111877;28;20201;-56
2023/12/08 04:45:07;;;;;;;12.53;8.67;;;;;;;-144.30;92.07;86637.13;5111544;28;20606;-56
2023/12/08 04:47:34;;;;;;;10.40;8.67;;;;;;;-144.30;91.77;86653.03;5111825;28;20643;-57
2023/12/08 04:50:02;;;;;;;11.20;8.57;;;;;;;-144.30;91.51;86664.97;5111474;28;20195;-56
2023/12/08 04:52:29;;;;;;;10.20;8.17;;;;;;;-144.30;91.46;86649.06;5111530;28;20199;-57
2023/12/08 04:54:56;;;;;;;10.33;7.90;;;;;;;-144.30;90.61;86627.19;5111504;28;20203;-59
2023/12/08 04:57:23;;;;;;;9.57;7.97;;;;;;;-144.30;90.80;86664.97;5111607;28;20198;-60
2023/12/08 04:59:51;;;;;;;11.07;7.90;;;;;;;-144.30;90.39;86651.06;5111408;28;20669;-58
2023/12/08 05:02:18;;;;;;;11.27;8.87;;;;;;;-144.30;90.67;86653.03;5111150;28;20205;-58
2023/12/08 05:04:45;;;;;;;10.80;8.30;;;;;;;-144.30;90.92;86613.28;5111435;28;20289;-57
2023/12/08 05:07:12;;;;;;;15.37;9.90;;;;;;;-144.30;91.21;86645.09;5111298;28;20195;-58
2023/12/08 05:09:39;;;;;;;10.50;8.17;;;;;;;-144.30;91.28;86645.09;5111205;28;20195;-59
2023/12/08 05:12:06;;;;;;;11.13;8.53;;;;;;;-144.30;91.31;86668.94;5111360;28;20674;-60
2023/12/08 05:14:33;;;;;;;12.27;8.93;;;;;;;-144.30;90.69;86647.06;5111260;28;20203;-60
2023/12/08 05:17:02;;;;;;;14.63;9.77;;;;;;;-144.30;91.24;86617.25;5111063;28;20186;-59
2023/12/08 05:19:29;;;;;;;16.87;9.47;;;;;;;-144.30;90.84;86662.97;5106332;28;20210;-61
2023/12/08 05:21:56;;;;;;;14.53;9.80;;;;;;;-144.30;91.14;86651.06;5110748;28;20204;-59
2023/12/08 05:24:23;;;;;;;13.93;9.00;;;;;;;-144.30;92.79;86661.00;5110448;28;20670;-60
2023/12/08 05:26:50;;;;;;;14.83;9.40;;;;;;;-144.30;91.80;86676.91;5110963;28;20249;-60
2023/12/08 05:29:17;;;;;;;16.67;10.30;;;;;;;-144.30;91.26;86637.13;5118433;27;20209;-60
2023/12/08 05:31:44;;;;;;;12.90;9.67;;;;;;;-144.30;92.23;86657.03;5114708;27;20617;-60
2023/12/08 05:34:12;;;;;;;13.53;9.27;;;;;;;-144.30;91.79;86633.16;5110290;28;20199;-57
2023/12/08 05:36:39;;;;;;;10.90;8.87;;;;;;;-144.30;90.57;86647.06;5110660;28;20298;-58
2023/12/08 05:39:06;;;;;;;12.23;8.93;;;;;;;-144.30;90.24;86643.09;5110610;28;20195;-57
2023/12/08 05:41:33;;;;;;;15.13;9.80;;;;;;;-144.30;90.65;86641.09;5110376;28;20303;-56
2023/12/08 05:44:00;;;;;;;11.57;9.00;;;;;;;-144.30;90.31;86633.16;5110510;28;20285;-57
2023/12/08 05:46:27;;;;;;;13.10;9.80;;;;;;;-144.30;89.64;86607.31;5110430;28;20300;-56
2023/12/08 05:48:54;;;;;;;11.63;9.30;;;;;;;-144.30;89.42;86639.13;5109726;28;20205;-56
2023/12/08 05:51:22;;;;;;;11.80;9.23;;;;;;;-144.30;89.55;86639.13;5110581;28;20731;-57
2023/12/08 05:53:49;;;;;;;13.70;8.90;;;;;;;-144.30;89.36;86533.72;5110590;28;20604;-60
2023/12/08 05:56:16;;;;;;;11.17;8.63;;;;;;;-144.30;89.47;86639.13;5110374;28;20569;-61
2023/12/08 05:58:43;;;;;;;14.03;9.10;;;;;;;-144.30;89.49;86629.19;5110715;28;20682;-61
2023/12/08 06:01:12;;;;;;;13.33;9.07;;;;;;;-144.30;89.08;86664.97;5109201;28;20199;-60
2023/12/08 06:03:39;;;;;;;14.87;9.80;;;;;;;-144.30;89.11;86633.16;5109346;28;20684;-57
2023/12/08 06:06:07;;;;;;;12.83;9.90;;;;;;;-144.30;89.44;86615.25;5109821;28;20219;-60
2023/12/08 06:08:35;;;;;;;13.07;8.93;;;;;;;-144.30;89.20;86661.00;5110159;28;20244;-55
2023/12/08 06:11:03;;;;;;;12.27;9.00;;;;;;;-144.30;89.61;86633.16;5109247;28;20194;-58
2023/12/08 06:13:30;;;;;;;13.07;9.77;;;;;;;-144.30;89.20;86661.00;5109729;28;20277;-56
2023/12/08 06:15:57;;;;;;;18.07;10.00;;;;;;;-144.30;89.61;86633.16;5109773;28;20199;-57
2023/12/08 06:18:24;;;;;;;14.43;9.77;;;;;;;-144.30;89.61;86619.22;5108466;28;20670;-57
2023/12/08 06:20:51;;;;;;;16.37;10.03;;;;;;;-144.30;89.31;86651.06;5109585;28;20596;-58
2023/12/08 06:23:18;;;;;;;12.13;9.30;;;;;;;-144.30;89.51;86651.06;5109435;28;20198;-57
2023/12/08 06:25:46;;;;;;;12.07;9.73;;;;;;;-144.30;88.89;86595.38;5109543;28;20221;-58
2023/12/08 06:28:13;;;;;;;14.27;9.50;;;;;;;-144.30;89.27;86617.25;5109465;28;20210;-57
2023/12/08 06:30:40;;;;;;;14.43;9.87;;;;;;;-144.30;89.15;86653.03;5109812;28;20195;-57
2023/12/08 06:33:07;;;;;;;13.77;9.90;;;;;;;-144.30;89.89;86633.16;5108999;28;20734;-60
2023/12/08 06:35:34;;;;;;;12.83;9.37;;;;;;;-144.30;89.51;86645.09;5110022;28;20201;-58
2023/12/08 06:38:01;;;;;;;19.97;10.70;;;;;;;-144.30;88.85;86633.16;5109156;28;20195;-61
2023/12/08 06:40:27;;;;;;;16.23;10.13;;;;;;;-144.30;89.15;86633.16;5109270;28;20229;-57
2023/12/08 06:42:56;;;;;;;14.10;9.60;;;;;;;-144.30;89.13;86659.00;5109654;28;20202;-59
2023/12/08 06:45:23;;;;;;;16.30;10.20;;;;;;;-144.30;88.99;86653.03;5109620;28;20191;-61
2023/12/08 06:47:49;;;;;;;15.40;9.93;;;;;;;-144.30;88.27;86615.25;5108884;28;20213;-57
2023/12/08 06:50:16;;;;;;;12.17;9.70;;;;;;;-144.30;89.67;86585.44;5109159;28;20209;-61
2023/12/08 06:52:44;;;;;;;13.27;9.70;;;;;;;-144.30;89.28;86621.22;5109381;28;20198;-61
2023/12/08 06:55:11;;;;;;;16.33;10.40;;;;;;;-144.30;88.93;86621.22;5109889;28;20195;-59
2023/12/08 06:57:38;;;;;;;12.50;9.67;;;;;;;-144.30;88.96;86633.16;5109729;28;20658;-59
2023/12/08 07:00:10;;;;;;;13.30;9.97;;;;;;;-144.30;89.03;86635.13;5109204;28;20352;-61
2023/12/08 07:02:37;;;;;;;14.40;10.20;;;;;;;-144.30;88.96;86649.06;5112529;28;20282;-61
2023/12/08 07:05:04;;;;;;;13.20;10.00;;;;;;;-144.30;89.37;86643.09;5113473;28;20203;-59
2023/12/08 07:07:31;;;;;;;20.33;9.73;;;;;;;-144.30;89.71;86637.13;5113708;28;20222;-57
2023/12/08 07:09:58;;;;;;;14.47;9.87;;;;;;;-144.30;88.58;86625.19;5113567;28;20724;-56
2023/12/08 07:12:25;;;;;;;13.50;10.20;;;;;;;-144.30;89.28;86653.03;5113501;28;20194;-57
2023/12/08 07:14:52;;;;;;;17.03;9.77;;;;;;;-144.30;89.38;86639.13;5113005;28;20194;-59
2023/12/08 07:17:20;;;;;;;14.20;9.33;;;;;;;-144.30;89.28;86659.00;5113281;28;20678;-57
2023/12/08 07:19:47;;;;;;;12.93;9.57;;;;;;;-144.30;88.96;86649.06;5113360;28;20209;-59
2023/12/08 07:22:14;;;;;;;12.50;9.30;;;;;;;-144.30;89.36;86637.13;5112718;28;20190;-59
2023/12/08 07:24:41;;;;;;;13.60;9.50;;;;;;;-144.30;89.49;86661.00;5113138;28;20277;-61
2023/12/08 07:27:08;;;;;;;17.77;10.67;;;;;;;-144.30;89.59;86589.41;5112952;28;20306;-60
2023/12/08 07:29:35;;;;;;;15.10;10.57;;;;;;;-144.30;89.30;86655.03;5113107;28;20198;-58
2023/12/08 07:32:03;;;;;;;13.37;9.63;;;;;;;-144.30;89.78;86668.94;5112683;28;20195;-59
2023/12/08 07:34:31;;;;;;;13.30;9.90;;;;;;;-144.30;89.25;86680.88;5112542;28;20199;-57
2023/12/08 07:36:58;;;;;;;15.83;10.27;;;;;;;-144.30;89.11;86609.28;5112729;28;20193;-58
2023/12/08 07:39:25;;;;;;;14.13;9.50;;;;;;;-144.30;89.34;86643.09;5112788;28;20217;-59
2023/12/08 07:41:52;;;;;;;17.63;10.73;;;;;;;-144.30;89.45;86641.09;5112669;28;20226;-58
2023/12/08 07:44:19;;;;;;;18.60;11.17;;;;;;;-144.30;89.35;86607.31;5111391;28;20285;-57
2023/12/08 07:46:46;;;;;;;16.50;11.00;;;;;;;-144.30;89.13;86641.09;5111620;28;20709;-57
2023/12/08 07:49:12;;;;;;;18.10;11.27;;;;;;;-144.30;89.02;86657.03;5112302;28;20291;-59
2023/12/08 07:51:41;;;;;;;14.87;9.53;;;;;;;-144.30;89.32;86593.38;5112640;28;20517;-60
2023/12/08 07:54:08;;;;;;;13.90;10.10;;;;;;;-144.30;89.23;86593.38;5109565;28;20221;-60
2023/12/08 07:56:35;;;;;;;12.13;9.97;;;;;;;-144.30;88.80;86607.31;5111412;28;20193;-59
2023/12/08 07:59:02;;;;;;;13.93;9.60;;;;;;;-144.30;89.39;86625.19;5112078;28;20195;-60
2023/12/08 08:01:30;;;;;;;16.13;10.77;;;;;;;-144.30;89.54;86666.97;5112314;28;20203;-60
2023/12/08 08:03:57;;;;;;;15.50;9.87;;;;;;;-144.30;90.00;86674.91;5111937;28;20194;-60
2023/12/08 08:06:25;;;;;;;13.10;9.40;;;;;;;-144.30;89.50;86664.97;5111403;28;20745;-59
2023/12/08 08:08:53;;;;;;;12.40;8.97;;;;;;;-144.30;89.18;86583.44;5112676;28;20729;-58
2023/12/08 08:11:20;;;;;;;16.57;11.10;;;;;;;-144.30;89.90;86637.13;5112008;28;20199;-57
2023/12/08 08:13:47;;;;;;;16.23;11.10;;;;;;;-144.30;90.24;86645.09;5111973;28;20274;-56
2023/12/08 08:16:14;;;;;;;15.10;10.20;;;;;;;-144.30;90.73;86676.91;5111501;28;20189;-60
2023/12/08 08:18:41;;;;;;;18.13;10.37;;;;;;;-144.30;90.35;86627.19;5112000;28;20202;-57
2023/12/08 08:21:08;;;;;;;15.80;10.83;;;;;;;-144.30;90.94;86621.22;5111935;28;20199;-56
2023/12/08 08:23:35;;;;;;;18.17;11.00;;;;;;;-144.30;90.85;86474.06;5112438;28;20198;-57
2023/12/08 08:26:04;;;;;;;14.83;10.47;;;;;;;-144.30;90.90;86668.94;5111251;28;20191;-57
2023/12/08 08:28:31;;;;;;;14.80;10.77;;;;;;;-144.30;90.64;86615.25;5109236;28;20297;-56
2023/12/08 08:30:58;;;;;;;15.37;10.73;;;;;;;-144.30;90.78;86639.13;5111952;28;20199;-56
2023/12/08 08:33:25;;;;;;;15.07;10.60;;;;;;;-144.30;90.66;86619.22;5112256;28;20681;-63
2023/12/08 08:35:52;;;;;;;15.50;10.93;;;;;;;-144.30;91.17;86629.19;5111895;28;20194;-56
2023/12/08 08:38:19;;;;;;;14.13;9.50;;;;;;;-144.30;90.98;86635.13;5112142;28;20708;-56
2023/12/08 08:40:46;;;;;;;14.70;10.57;;;;;;;-144.30;91.13;86633.16;5111757;28;20241;-58
2023/12/08 08:43:14;;;;;;;15.73;9.77;;;;;;;-144.30;90.79;86631.16;5111898;28;20285;-62
2023/12/08 08:45:41;;;;;;;13.70;9.80;;;;;;;-144.30;90.90;86629.19;5111926;28;20230;-62
2023/12/08 08:48:08;;;;;;;13.73;9.87;;;;;;;-144.30;91.16;86649.06;5111462;28;20335;-63
2023/12/08 08:50:35;;;;;;;17.13;11.13;;;;;;;-144.30;91.08;86633.16;5111372;28;20194;-62
2023/12/08 08:53:02;;;;;;;14.43;10.10;;;;;;;-144.30;91.89;86645.09;5110654;28;20241;-60
2023/12/08 08:55:29;;;;;;;13.30;10.07;;;;;;;-144.30;92.40;86611.28;5111407;28;20191;-64
2023/12/08 08:57:56;;;;;;;16.73;10.20;;;;;;;-144.30;92.51;86659.00;5111714;28;20733;-63
2023/12/08 09:00:26;;;;;;;16.97;10.67;;;;;;;-144.30;92.37;86653.03;5111004;28;20197;-64
2023/12/08 09:02:53;;;;;;;16.97;9.90;;;;;;;-144.30;92.64;86633.16;5110266;28;20209;-58
2023/12/08 09:05:21;;;;;;;13.97;10.17;;;;;;;-144.30;92.04;86629.19;5111115;28;20205;-57
2023/12/08 09:07:48;;;;;;;14.70;10.07;;;;;;;-144.30;92.01;86609.28;5111318;28;20727;-64
2023/12/08 09:10:15;;;;;;;13.27;9.97;;;;;;;-144.30;92.17;86613.28;5110665;28;20191;-58
2023/12/08 09:12:42;;;;;;;14.10;10.63;;;;;;;-144.30;91.93;86599.34;5110615;28;20195;-61
2023/12/08 09:15:11;;;;;;;16.70;10.83;;;;;;;-144.30;92.83;86617.25;5109865;28;20198;-64
2023/12/08 09:17:40;;;;;;;15.37;9.93;;;;;;;-144.30;92.44;86557.59;5111264;28;20227;-65
2023/12/08 09:20:13;;;;;;;15.10;9.63;;;;;;;-144.30;92.83;86641.09;5111196;28;20302;-64
2023/12/08 09:22:40;;;;;;;15.13;10.43;;;;;;;-144.30;92.98;86625.19;5110924;28;20198;-57
2023/12/08 09:25:08;;;;;;;16.50;10.90;;;;;;;-144.30;92.34;86641.09;5110485;28;20194;-64
2023/12/08 09:27:35;;;;;;;18.57;11.50;;;;;;;-144.30;92.66;86633.16;5111185;28;20218;-57
2023/12/08 09:30:02;;;;;;;18.27;11.70;;;;;;;-144.30;92.91;86587.41;5110939;28;20669;-57
2023/12/08 09:32:29;;;;;;;19.07;11.50;;;;;;;-144.30;92.70;86605.31;5111003;28;20315;-64
2023/12/08 09:34:57;;;;;;;16.80;11.87;;;;;;;-144.30;93.15;86625.19;5110647;28;20584;-64
2023/12/08 09:37:24;;;;;;;20.27;12.03;;;;;;;-144.30;93.30;86613.28;5111109;28;20194;-65
2023/12/08 09:39:52;;;;;;;16.70;11.23;;;;;;;-144.30;93.20;86619.22;5111043;28;20277;-62
2023/12/08 09:42:29;;;;;;;15.33;10.73;;;;;;;-144.30;93.83;86607.31;5110919;28;20697;-57
2023/12/08 09:44:56;;;;;;;18.83;12.13;;;;;;;-144.30;92.84;86615.25;5110521;28;20217;-57
2023/12/08 09:47:27;;;;;;;22.13;12.43;;;;;;;-144.30;93.20;86605.31;5110515;28;20218;-57
2023/12/08 09:49:58;;;;;;;14.57;10.90;;;;;;;-144.30;93.08;86601.34;5110366;28;20199;-58
2023/12/08 09:52:25;;;;;;;16.00;11.23;;;;;;;-144.30;93.43;86593.38;5110299;28;20186;-58
2023/12/08 09:54:53;;;;;;;17.73;10.83;;;;;;;-144.30;93.91;86597.34;5110613;28;20198;-58
2023/12/08 09:57:21;;;;;;;14.40;10.50;;;;;;;-144.30;93.45;86629.19;5110892;28;20198;-64
2023/12/08 09:59:48;;;;;;;15.47;10.90;;;;;;;-144.30;93.70;86643.09;5110482;28;20199;-64
2023/12/08 10:02:15;;;;;;;20.83;11.80;;;;;;;-144.30;93.54;86629.19;5110171;28;20251;-66
2023/12/08 10:04:42;;;;;;;17.87;11.73;;;;;;;-144.30;93.53;86621.22;5110601;28;20194;-58
2023/12/08 10:07:11;;;;;;;20.83;11.93;;;;;;;-144.30;94.03;86384.59;5110281;28;20225;-58
2023/12/08 10:09:38;;;;;;;19.03;12.53;;;;;;;-144.30;94.26;86603.31;5110656;28;20187;-58
2023/12/08 10:12:06;;;;;;;16.37;11.23;;;;;;;-144.30;93.71;86627.19;5110024;28;20190;-59
2023/12/08 10:14:33;;;;;;;17.20;11.13;;;;;;;-144.30;93.27;86609.28;5110203;28;20196;-64
2023/12/08 10:17:02;;;;;;;17.50;12.20;;;;;;;-144.30;93.61;86613.28;5110046;28;20191;-57
2023/12/08 10:19:29;;;;;;;21.03;12.47;;;;;;;-144.30;93.72;86611.28;5110109;28;20241;-57
2023/12/08 10:22:00;;;;;;;19.17;12.03;;;;;;;-144.30;93.71;86593.38;5110234;28;20575;-58
2023/12/08 10:24:30;;;;;;;21.30;12.90;;;;;;;-144.30;94.60;86619.22;5110206;28;20566;-57
2023/12/08 10:26:58;;;;;;;20.93;12.53;;;;;;;-144.30;94.34;86601.34;5109878;28;20218;-59
2023/12/08 10:29:30;;;;;;;16.73;11.77;;;;;;;-144.30;94.92;86585.44;5110060;28;20199;-58
2023/12/08 10:31:58;;;;;;;19.20;12.80;;;;;;;-144.30;94.89;86605.31;5110186;28;20213;-65
2023/12/08 10:34:25;;;;;;;21.47;14.20;;;;;;;-144.30;94.96;86633.16;5109662;28;20321;-62
2023/12/08 10:36:53;;;;;;;19.83;12.77;;;;;;;-144.30;95.32;86619.22;5111931;28;20230;-62
2023/12/08 10:39:19;;;;;;;21.83;12.77;;;;;;;-144.30;95.12;86629.19;5113611;28;20615;-57
2023/12/08 10:41:50;;;;;;;23.20;12.37;;;;;;;-144.30;94.87;86623.22;5113946;28;20258;-57
2023/12/08 10:44:19;;;;;;;18.50;11.63;;;;;;;-144.30;95.17;86621.22;5113228;28;20285;-57
2023/12/08 10:46:48;;;;;;;18.73;11.00;;;;;;;-144.30;95.42;86597.34;5113662;27;20846;-57
2023/12/08 10:49:19;;;;;;;19.07;12.67;;;;;;;-144.30;94.92;86597.34;5113244;28;20285;-56
2023/12/08 10:51:48;;;;;;;19.33;12.73;;;;;;;-144.30;94.23;86647.06;5108954;28;20206;-61
2023/12/08 10:54:16;;;;;;;19.50;12.10;;;;;;;-144.30;94.99;86613.28;5112442;28;20199;-61
2023/12/08 10:56:44;;;;;;;19.97;12.17;;;;;;;-144.30;95.01;86627.19;5113504;28;20190;-63
2023/12/08 10:59:18;;;;;;;18.60;11.80;;;;;;;-144.30;95.46;86619.22;5113814;28;20222;-64
2023/12/08 11:01:47;;;;;;;17.60;11.83;;;;;;;-144.30;94.99;86625.19;5116269;27;20198;-64
2023/12/08 11:04:20;;;;;;;18.67;11.93;;;;;;;-144.30;94.60;86623.22;5115822;27;20195;-65
2023/12/08 11:06:58;;;;;;;17.50;11.97;;;;;;;-144.30;95.56;86641.09;5112905;28;20198;-64
2023/12/08 11:09:28;;;;;;;19.33;12.27;;;;;;;-144.30;95.18;86623.22;5113927;28;20717;-63
2023/12/08 11:11:56;;;;;;;17.77;11.40;;;;;;;-144.30;94.82;86615.25;5113743;28;20573;-63